createdAt,value
2019-02-06T00:00:26.728Z,72.70
2019-02-06T00:00:53.693Z,72.72
2019-02-06T00:01:24.894Z,72.61
2019-02-06T00:01:56.129Z,72.53
2019-02-06T00:02:27.345Z,72.46
2019-02-06T00:02:58.577Z,72.46
2019-02-06T00:03:30.186Z,72.52
2019-02-06T00:04:01.404Z,72.53
2019-02-06T00:04:32.605Z,72.55
2019-02-06T00:05:13.911Z,72.64
2019-02-06T00:05:36.749Z,72.74
2019-02-06T00:06:07.958Z,72.96
2019-02-06T00:06:39.162Z,73.05
2019-02-06T00:07:10.372Z,73.14
2019-02-06T00:07:41.597Z,73.34
2019-02-06T00:08:12.874Z,73.56
2019-02-06T00:08:44.203Z,73.79
2019-02-06T00:09:15.919Z,73.79
2019-02-06T00:09:47.155Z,73.71
2019-02-06T00:10:18.368Z,73.71
2019-02-06T00:10:49.570Z,73.74
2019-02-06T00:11:20.830Z,74.10
2019-02-06T00:11:52.042Z,74.22
2019-02-06T00:12:23.255Z,74.34
2019-02-06T00:12:54.473Z,74.26
2019-02-06T00:13:25.764Z,74.18
2019-02-06T00:13:57.338Z,74.17
2019-02-06T00:14:28.594Z,74.31
2019-02-06T00:14:59.804Z,74.46
2019-02-06T00:15:31.235Z,74.55
2019-02-06T00:16:02.512Z,74.58
2019-02-06T00:16:33.836Z,74.67
2019-02-06T00:17:05.075Z,74.80
2019-02-06T00:17:36.373Z,75.00
2019-02-06T00:18:07.636Z,75.20
2019-02-06T00:18:38.833Z,75.31
2019-02-06T00:19:10.097Z,75.46
2019-02-06T00:19:41.550Z,75.54
2019-02-06T00:20:12.770Z,75.84
2019-02-06T00:20:44.012Z,75.77
2019-02-06T00:21:15.241Z,75.68
2019-02-06T00:21:46.514Z,75.61
2019-02-06T00:22:17.741Z,75.53
2019-02-06T00:22:48.947Z,75.46
2019-02-06T00:23:20.158Z,75.36
2019-02-06T00:23:51.421Z,75.35
2019-02-06T00:24:23.661Z,75.28
2019-02-06T00:24:54.886Z,75.26
2019-02-06T00:25:26.387Z,75.18
2019-02-06T00:25:57.600Z,75.17
2019-02-06T00:26:28.834Z,75.14
2019-02-06T00:27:00.076Z,75.08
2019-02-06T00:27:31.300Z,75.01
2019-02-06T00:28:02.523Z,74.91
2019-02-06T00:28:33.744Z,74.93
2019-02-06T00:29:04.996Z,75.11
2019-02-06T00:29:36.215Z,75.38
2019-02-06T00:30:07.423Z,75.32
2019-02-06T00:30:38.637Z,75.27
2019-02-06T00:31:10.328Z,75.22
2019-02-06T00:31:41.540Z,75.26
2019-02-06T00:32:12.760Z,75.22
2019-02-06T00:32:44.044Z,75.33
2019-02-06T00:33:15.328Z,75.36
2019-02-06T00:33:46.552Z,75.33
2019-02-06T00:34:17.777Z,75.32
2019-02-06T00:34:49.017Z,75.36
2019-02-06T00:35:25.691Z,75.36
2019-02-06T00:35:53.195Z,75.36
2019-02-06T00:36:24.412Z,77.31
2019-02-06T00:36:55.810Z,77.62
2019-02-06T00:37:27.058Z,77.54
2019-02-06T00:37:58.312Z,76.36
2019-02-06T00:38:29.562Z,75.26
2019-02-06T00:39:00.778Z,75.36
2019-02-06T00:39:31.982Z,75.25
2019-02-06T00:40:03.305Z,74.33
2019-02-06T00:40:34.521Z,73.44
2019-02-06T00:41:05.762Z,71.84
2019-02-06T00:41:36.991Z,71.45
2019-02-06T00:42:08.223Z,71.10
2019-02-06T00:42:39.726Z,70.96
2019-02-06T00:43:10.942Z,70.98
2019-02-06T00:43:42.225Z,71.04
2019-02-06T00:44:13.435Z,71.16
2019-02-06T00:44:44.647Z,71.30
2019-02-06T00:45:15.880Z,71.58
2019-02-06T00:45:47.081Z,71.86
2019-02-06T00:46:18.320Z,72.10
2019-02-06T00:46:49.543Z,72.35
2019-02-06T00:47:20.755Z,72.58
2019-02-06T00:47:51.991Z,72.77
2019-02-06T00:48:23.481Z,72.80
2019-02-06T00:48:54.760Z,72.87
2019-02-06T00:49:25.971Z,72.94
2019-02-06T00:49:57.175Z,73.00
2019-02-06T00:50:28.398Z,73.08
2019-02-06T00:50:59.588Z,73.02
2019-02-06T00:51:30.821Z,73.03
2019-02-06T00:52:02.047Z,73.14
2019-02-06T00:52:33.308Z,73.29
2019-02-06T00:53:04.516Z,73.31
2019-02-06T00:53:35.733Z,73.43
2019-02-06T00:54:07.280Z,73.59
2019-02-06T00:54:38.488Z,73.72
2019-02-06T00:55:09.699Z,73.73
2019-02-06T00:55:40.912Z,73.72
2019-02-06T00:56:12.123Z,74.05
2019-02-06T00:56:43.348Z,74.08
2019-02-06T00:57:14.548Z,74.30
2019-02-06T00:57:45.788Z,75.10
2019-02-06T00:58:17.006Z,75.24
2019-02-06T00:58:48.232Z,74.78
2019-02-06T00:59:19.445Z,74.54
2019-02-06T00:59:50.950Z,74.54
2019-02-06T01:00:22.233Z,74.55
2019-02-06T01:00:53.440Z,74.62
2019-02-06T01:01:24.647Z,74.67
2019-02-06T01:01:55.870Z,74.83
2019-02-06T01:02:27.112Z,75.01
2019-02-06T01:02:58.365Z,75.07
2019-02-06T01:03:29.568Z,75.16
2019-02-06T01:04:00.779Z,75.21
2019-02-06T01:04:32.140Z,75.13
2019-02-06T01:05:03.342Z,74.83
2019-02-06T01:05:38.541Z,74.87
2019-02-06T01:06:07.932Z,74.96
2019-02-06T01:06:39.147Z,74.91
2019-02-06T01:07:10.360Z,74.85
2019-02-06T01:07:41.575Z,74.80
2019-02-06T01:08:12.784Z,74.70
2019-02-06T01:08:43.992Z,74.86
2019-02-06T01:09:15.203Z,75.34
2019-02-06T01:09:46.406Z,75.35
2019-02-06T01:10:17.820Z,75.55
2019-02-06T01:10:49.032Z,75.90
2019-02-06T01:11:20.677Z,75.89
2019-02-06T01:11:51.885Z,75.93
2019-02-06T01:12:23.090Z,75.86
2019-02-06T01:12:54.299Z,75.79
2019-02-06T01:13:25.536Z,75.85
2019-02-06T01:13:56.748Z,75.86
2019-02-06T01:14:30.264Z,75.83
2019-02-06T01:15:03.773Z,75.82
2019-02-06T01:15:34.986Z,75.69
2019-02-06T01:16:06.250Z,75.75
2019-02-06T01:16:37.458Z,75.84
2019-02-06T01:17:09.318Z,75.87
2019-02-06T01:17:40.527Z,75.95
2019-02-06T01:18:11.798Z,75.67
2019-02-06T01:18:43.001Z,75.37
2019-02-06T01:19:14.265Z,76.96
2019-02-06T01:19:45.459Z,76.21
2019-02-06T01:20:16.686Z,75.51
2019-02-06T01:20:47.915Z,76.38
2019-02-06T01:21:19.138Z,75.55
2019-02-06T01:21:51.300Z,74.07
2019-02-06T01:22:22.563Z,74.68
2019-02-06T01:22:54.244Z,74.41
2019-02-06T01:23:25.452Z,73.63
2019-02-06T01:23:56.682Z,72.39
2019-02-06T01:24:27.903Z,70.75
2019-02-06T01:24:59.180Z,69.96
2019-02-06T01:25:30.391Z,69.90
2019-02-06T01:26:01.603Z,69.48
2019-02-06T01:26:32.812Z,69.39
2019-02-06T01:27:04.085Z,70.85
2019-02-06T01:27:35.469Z,71.57
2019-02-06T01:28:06.678Z,70.77
2019-02-06T01:28:37.919Z,69.51
2019-02-06T01:29:09.101Z,69.25
2019-02-06T01:29:40.302Z,69.12
2019-02-06T01:30:11.535Z,69.01
2019-02-06T01:30:42.737Z,69.13
2019-02-06T01:31:14.010Z,69.31
2019-02-06T01:31:45.225Z,69.38
2019-02-06T01:32:16.438Z,69.61
2019-02-06T01:32:47.694Z,69.81
2019-02-06T01:33:19.170Z,69.90
2019-02-06T01:33:50.401Z,70.13
2019-02-06T01:34:21.692Z,70.39
2019-02-06T01:34:52.879Z,70.85
2019-02-06T01:35:24.139Z,71.50
2019-02-06T01:35:55.320Z,72.38
2019-02-06T01:36:26.528Z,73.00
2019-02-06T01:36:57.742Z,73.00
2019-02-06T01:37:28.949Z,72.91
2019-02-06T01:38:00.186Z,72.90
2019-02-06T01:38:31.402Z,72.83
2019-02-06T01:39:02.996Z,72.77
2019-02-06T01:39:34.243Z,72.73
2019-02-06T01:40:05.445Z,72.73
2019-02-06T01:40:36.657Z,72.87
2019-02-06T01:41:07.871Z,73.25
2019-02-06T01:41:39.387Z,73.31
2019-02-06T01:42:10.646Z,73.25
2019-02-06T01:42:41.874Z,73.82
2019-02-06T01:43:13.111Z,74.03
2019-02-06T01:43:44.527Z,73.92
2019-02-06T01:44:15.745Z,73.93
2019-02-06T01:44:47.240Z,74.00
2019-02-06T01:45:18.470Z,74.05
2019-02-06T01:45:49.850Z,74.06
2019-02-06T01:46:21.010Z,74.14
2019-02-06T01:46:52.230Z,74.24
2019-02-06T01:47:23.494Z,74.31
2019-02-06T01:47:54.773Z,74.24
2019-02-06T01:48:25.982Z,74.33
2019-02-06T01:48:57.205Z,74.65
2019-02-06T01:49:28.867Z,75.01
2019-02-06T01:50:00.303Z,75.19
2019-02-06T01:50:31.477Z,75.45
2019-02-06T01:51:02.709Z,75.59
2019-02-06T01:51:33.927Z,75.89
2019-02-06T01:52:05.180Z,76.35
2019-02-06T01:52:36.468Z,76.43
2019-02-06T01:53:07.677Z,76.89
2019-02-06T01:53:38.884Z,76.41
2019-02-06T01:54:10.089Z,76.07
2019-02-06T01:54:41.349Z,76.02
2019-02-06T01:55:13.037Z,75.65
2019-02-06T01:55:44.245Z,75.44
2019-02-06T01:56:15.480Z,75.01
2019-02-06T01:56:46.712Z,74.81
2019-02-06T01:57:17.949Z,74.76
2019-02-06T01:57:49.167Z,74.80
2019-02-06T01:58:20.380Z,74.81
2019-02-06T01:58:51.579Z,74.79
2019-02-06T01:59:22.794Z,74.87
2019-02-06T01:59:54.045Z,74.83
2019-02-06T02:00:25.239Z,75.14
2019-02-06T02:00:56.783Z,75.39
2019-02-06T02:01:27.988Z,75.85
2019-02-06T02:01:59.201Z,76.10
2019-02-06T02:02:30.426Z,76.19
2019-02-06T02:03:01.628Z,76.19
2019-02-06T02:03:32.847Z,76.18
2019-02-06T02:04:04.027Z,76.22
2019-02-06T02:04:35.253Z,76.36
2019-02-06T02:05:06.500Z,76.43
2019-02-06T02:05:38.109Z,76.47
2019-02-06T02:06:09.312Z,76.45
2019-02-06T02:06:40.539Z,76.64
2019-02-06T02:07:11.751Z,76.99
2019-02-06T02:07:42.972Z,76.89
2019-02-06T02:08:14.178Z,76.84
2019-02-06T02:08:45.411Z,76.74
2019-02-06T02:09:16.631Z,76.72
2019-02-06T02:09:47.841Z,76.61
2019-02-06T02:10:19.071Z,76.57
2019-02-06T02:10:50.326Z,76.56
2019-02-06T02:11:21.712Z,76.57
2019-02-06T02:11:52.935Z,76.51
2019-02-06T02:12:24.220Z,76.53
2019-02-06T02:12:55.427Z,76.55
2019-02-06T02:13:26.655Z,76.62
2019-02-06T02:13:57.861Z,76.67
2019-02-06T02:14:29.061Z,76.74
2019-02-06T02:15:00.334Z,76.73
2019-02-06T02:15:31.584Z,76.75
2019-02-06T02:16:02.807Z,76.81
2019-02-06T02:16:34.014Z,76.81
2019-02-06T02:17:05.617Z,77.03
2019-02-06T02:17:36.824Z,77.65
2019-02-06T02:18:08.055Z,77.64
2019-02-06T02:18:39.327Z,77.62
2019-02-06T02:19:10.539Z,77.61
2019-02-06T02:19:41.749Z,77.45
2019-02-06T02:20:12.977Z,77.35
2019-02-06T02:20:44.197Z,77.37
2019-02-06T02:21:15.399Z,77.46
2019-02-06T02:21:46.624Z,77.57
2019-02-06T02:22:17.919Z,77.61
2019-02-06T02:22:49.621Z,77.65
2019-02-06T02:23:20.849Z,77.63
2019-02-06T02:23:52.109Z,77.85
2019-02-06T02:24:23.374Z,77.98
2019-02-06T02:24:54.613Z,78.06
2019-02-06T02:25:25.835Z,78.02
2019-02-06T02:25:57.051Z,78.02
2019-02-06T02:26:28.285Z,78.02
2019-02-06T02:26:59.528Z,78.15
2019-02-06T02:27:30.785Z,78.13
2019-02-06T02:28:01.984Z,78.11
2019-02-06T02:28:33.675Z,78.17
2019-02-06T02:29:04.897Z,78.16
2019-02-06T02:29:36.127Z,78.21
2019-02-06T02:30:07.365Z,78.24
2019-02-06T02:30:38.611Z,78.29
2019-02-06T02:31:09.799Z,78.42
2019-02-06T02:31:41.048Z,78.69
2019-02-06T02:32:12.317Z,78.86
2019-02-06T02:32:43.530Z,78.98
2019-02-06T02:33:14.740Z,79.10
2019-02-06T02:33:46.024Z,79.10
2019-02-06T02:34:17.723Z,78.88
2019-02-06T02:34:49.076Z,78.84
2019-02-06T02:35:20.285Z,78.92
2019-02-06T02:35:51.492Z,78.96
2019-02-06T02:36:22.702Z,78.98
2019-02-06T02:36:53.945Z,79.08
2019-02-06T02:37:26.208Z,79.13
2019-02-06T02:37:57.435Z,79.18
2019-02-06T02:38:28.662Z,79.26
2019-02-06T02:38:59.883Z,79.40
2019-02-06T02:39:31.095Z,79.55
2019-02-06T02:40:02.783Z,79.95
2019-02-06T02:40:33.989Z,80.29
2019-02-06T02:41:05.212Z,80.45
2019-02-06T02:41:36.455Z,80.21
2019-02-06T02:42:07.661Z,80.10
2019-02-06T02:42:38.934Z,80.06
2019-02-06T02:43:10.147Z,80.72
2019-02-06T02:43:41.357Z,81.07
2019-02-06T02:44:13.003Z,80.96
2019-02-06T02:44:44.206Z,80.46
2019-02-06T02:45:15.424Z,80.03
2019-02-06T02:45:47.172Z,79.60
2019-02-06T02:46:18.392Z,79.38
2019-02-06T02:46:49.595Z,79.19
2019-02-06T02:47:20.854Z,79.08
2019-02-06T02:47:52.074Z,79.15
2019-02-06T02:48:23.274Z,79.28
2019-02-06T02:48:54.512Z,79.38
2019-02-06T02:49:25.711Z,79.47
2019-02-06T02:49:56.962Z,79.40
2019-02-06T02:50:28.470Z,79.46
2019-02-06T02:50:59.666Z,79.57
2019-02-06T02:51:30.979Z,79.75
2019-02-06T02:52:02.176Z,79.86
2019-02-06T02:52:33.407Z,79.89
2019-02-06T02:53:04.617Z,79.94
2019-02-06T02:53:35.828Z,80.23
2019-02-06T02:54:07.051Z,80.23
2019-02-06T02:54:38.278Z,80.24
2019-02-06T02:55:09.508Z,80.28
2019-02-06T02:55:40.724Z,80.27
2019-02-06T02:56:12.262Z,80.39
2019-02-06T02:56:43.480Z,80.67
2019-02-06T02:57:14.725Z,80.71
2019-02-06T02:57:45.931Z,80.68
2019-02-06T02:58:17.133Z,80.84
2019-02-06T02:58:48.361Z,80.95
2019-02-06T02:59:19.645Z,80.99
2019-02-06T02:59:50.851Z,81.05
2019-02-06T03:00:22.064Z,81.15
2019-02-06T03:00:53.280Z,81.23
2019-02-06T03:01:24.507Z,81.27
2019-02-06T03:01:56.126Z,81.32
2019-02-06T03:02:27.350Z,81.33
2019-02-06T03:02:58.582Z,81.28
2019-02-06T03:03:29.797Z,81.24
2019-02-06T03:04:01.021Z,81.25
2019-02-06T03:04:32.245Z,81.21
2019-02-06T03:05:03.476Z,81.21
2019-02-06T03:05:35.078Z,81.24
2019-02-06T03:06:06.296Z,81.24
2019-02-06T03:06:37.500Z,81.25
2019-02-06T03:07:08.746Z,81.24
2019-02-06T03:07:40.220Z,81.25
2019-02-06T03:08:11.432Z,81.36
2019-02-06T03:08:42.645Z,81.37
2019-02-06T03:09:13.843Z,81.74
2019-02-06T03:09:45.055Z,81.94
2019-02-06T03:10:16.280Z,81.86
2019-02-06T03:10:47.538Z,81.80
2019-02-06T03:11:18.746Z,81.83
2019-02-06T03:11:50.001Z,81.85
2019-02-06T03:12:21.268Z,81.89
2019-02-06T03:12:52.508Z,81.93
2019-02-06T03:13:24.294Z,81.96
2019-02-06T03:13:55.518Z,81.98
2019-02-06T03:14:26.776Z,82.01
2019-02-06T03:14:57.986Z,82.11
2019-02-06T03:15:29.202Z,82.23
2019-02-06T03:16:00.422Z,82.34
2019-02-06T03:16:31.636Z,82.35
2019-02-06T03:17:03.466Z,82.38
2019-02-06T03:17:34.844Z,82.39
2019-02-06T03:18:06.072Z,82.44
2019-02-06T03:18:37.321Z,82.49
2019-02-06T03:19:08.948Z,82.68
2019-02-06T03:19:40.207Z,83.27
2019-02-06T03:20:11.491Z,83.72
2019-02-06T03:20:42.739Z,83.98
2019-02-06T03:21:13.960Z,84.28
2019-02-06T03:21:45.195Z,83.33
2019-02-06T03:22:16.423Z,82.71
2019-02-06T03:22:47.653Z,82.53
2019-02-06T03:23:18.854Z,82.36
2019-02-06T03:23:50.307Z,82.29
2019-02-06T03:24:21.559Z,82.36
2019-02-06T03:24:53.174Z,82.47
2019-02-06T03:25:24.377Z,82.62
2019-02-06T03:25:55.597Z,82.86
2019-02-06T03:26:26.801Z,82.96
2019-02-06T03:26:58.008Z,83.03
2019-02-06T03:27:29.228Z,83.11
2019-02-06T03:28:00.456Z,83.18
2019-02-06T03:28:31.732Z,83.17
2019-02-06T03:29:02.955Z,83.27
2019-02-06T03:29:34.466Z,83.25
2019-02-06T03:30:05.689Z,83.32
2019-02-06T03:30:37.049Z,83.41
2019-02-06T03:31:08.267Z,83.46
2019-02-06T03:31:39.471Z,83.44
2019-02-06T03:32:10.704Z,83.43
2019-02-06T03:32:41.909Z,83.37
2019-02-06T03:33:13.198Z,83.50
2019-02-06T03:33:44.403Z,83.61
2019-02-06T03:34:15.612Z,83.66
2019-02-06T03:34:46.887Z,83.62
2019-02-06T03:35:18.375Z,83.45
2019-02-06T03:35:49.609Z,83.30
2019-02-06T03:36:20.828Z,83.20
2019-02-06T03:36:52.032Z,82.99
2019-02-06T03:37:23.253Z,82.74
2019-02-06T03:37:54.462Z,82.62
2019-02-06T03:38:25.673Z,82.55
2019-02-06T03:38:56.901Z,82.59
2019-02-06T03:39:28.148Z,82.74
2019-02-06T03:39:59.421Z,82.55
2019-02-06T03:40:30.649Z,82.34
2019-02-06T03:41:02.143Z,82.19
2019-02-06T03:41:33.372Z,82.08
2019-02-06T03:42:04.581Z,82.06
2019-02-06T03:42:35.814Z,81.97
2019-02-06T03:43:07.036Z,81.92
2019-02-06T03:43:38.293Z,81.90
2019-02-06T03:44:09.503Z,81.96
2019-02-06T03:44:40.738Z,82.04
2019-02-06T03:45:12.050Z,82.28
2019-02-06T03:45:43.306Z,82.39
2019-02-06T03:46:14.530Z,82.48
2019-02-06T03:46:46.137Z,82.46
2019-02-06T03:47:17.349Z,82.34
2019-02-06T03:47:48.608Z,81.93
2019-02-06T03:48:19.804Z,81.80
2019-02-06T03:48:51.026Z,81.57
2019-02-06T03:49:22.262Z,81.40
2019-02-06T03:49:53.494Z,81.24
2019-02-06T03:50:24.757Z,81.40
2019-02-06T03:50:55.979Z,81.81
2019-02-06T03:51:27.370Z,82.06
2019-02-06T03:51:58.590Z,82.17
2019-02-06T03:52:29.792Z,82.10
2019-02-06T03:53:01.183Z,81.87
2019-02-06T03:53:32.433Z,81.57
2019-02-06T03:54:03.669Z,81.11
2019-02-06T03:54:34.901Z,80.71
2019-02-06T03:55:06.158Z,80.16
2019-02-06T03:55:37.417Z,79.84
2019-02-06T03:56:08.666Z,79.64
2019-02-06T03:56:39.878Z,78.95
2019-02-06T03:57:11.163Z,78.85
2019-02-06T03:57:42.363Z,79.66
2019-02-06T03:58:13.636Z,79.88
2019-02-06T03:58:44.908Z,79.78
2019-02-06T03:59:16.119Z,79.54
2019-02-06T03:59:47.338Z,79.27
2019-02-06T04:00:18.562Z,79.11
2019-02-06T04:00:49.785Z,79.02
2019-02-06T04:01:20.980Z,78.99
2019-02-06T04:01:52.265Z,79.04
2019-02-06T04:02:23.477Z,79.28
2019-02-06T04:02:55.060Z,79.51
2019-02-06T04:03:26.306Z,79.71
2019-02-06T04:03:57.514Z,79.78
2019-02-06T04:04:28.750Z,79.94
2019-02-06T04:04:59.974Z,79.97
2019-02-06T04:05:31.206Z,79.78
2019-02-06T04:06:02.409Z,79.62
2019-02-06T04:06:33.622Z,79.49
2019-02-06T04:07:04.958Z,79.46
2019-02-06T04:07:36.198Z,79.73
2019-02-06T04:08:07.421Z,79.87
2019-02-06T04:08:39.122Z,79.95
2019-02-06T04:09:10.330Z,80.02
2019-02-06T04:09:41.569Z,80.00
2019-02-06T04:10:12.789Z,80.04
2019-02-06T04:10:44.025Z,80.10
2019-02-06T04:11:15.238Z,80.04
2019-02-06T04:11:46.508Z,79.79
2019-02-06T04:12:17.753Z,79.54
2019-02-06T04:12:48.978Z,79.40
2019-02-06T04:13:20.420Z,79.25
2019-02-06T04:13:51.609Z,79.22
2019-02-06T04:14:23.227Z,79.30
2019-02-06T04:14:54.441Z,79.75
2019-02-06T04:15:25.709Z,80.22
2019-02-06T04:15:56.981Z,80.50
2019-02-06T04:16:28.201Z,80.65
2019-02-06T04:16:59.425Z,80.70
2019-02-06T04:17:30.635Z,80.67
2019-02-06T04:18:01.844Z,80.21
2019-02-06T04:18:33.083Z,80.01
2019-02-06T04:19:04.494Z,79.91
2019-02-06T04:19:35.727Z,79.94
2019-02-06T04:20:08.677Z,80.01
2019-02-06T04:20:39.880Z,80.20
2019-02-06T04:21:11.089Z,80.76
2019-02-06T04:21:42.292Z,80.74
2019-02-06T04:22:14.205Z,80.83
2019-02-06T04:22:45.496Z,80.98
2019-02-06T04:23:16.698Z,81.04
2019-02-06T04:23:47.903Z,81.02
2019-02-06T04:24:19.106Z,80.94
2019-02-06T04:24:51.698Z,81.11
2019-02-06T04:25:23.091Z,81.34
2019-02-06T04:25:54.592Z,81.55
2019-02-06T04:26:25.805Z,81.31
2019-02-06T04:26:57.062Z,81.03
2019-02-06T04:27:28.345Z,80.43
2019-02-06T04:27:59.574Z,79.84
2019-02-06T04:28:30.781Z,79.39
2019-02-06T04:29:01.995Z,78.94
2019-02-06T04:29:33.201Z,78.21
2019-02-06T04:30:04.434Z,78.14
2019-02-06T04:30:35.685Z,78.13
2019-02-06T04:31:06.895Z,78.22
2019-02-06T04:31:38.501Z,78.45
2019-02-06T04:32:09.738Z,78.55
2019-02-06T04:32:40.994Z,78.64
2019-02-06T04:33:12.208Z,78.74
2019-02-06T04:33:43.417Z,78.81
2019-02-06T04:34:14.673Z,78.80
2019-02-06T04:34:45.920Z,78.77
2019-02-06T04:35:17.136Z,78.81
2019-02-06T04:35:48.360Z,78.77
2019-02-06T04:36:19.560Z,78.74
2019-02-06T04:36:50.765Z,78.68
2019-02-06T04:37:22.350Z,78.70
2019-02-06T04:37:53.564Z,78.89
2019-02-06T04:38:24.772Z,79.51
2019-02-06T04:38:55.996Z,80.39
2019-02-06T04:39:27.251Z,80.64
2019-02-06T04:39:58.459Z,80.62
2019-02-06T04:40:29.671Z,80.35
2019-02-06T04:41:00.894Z,80.17
2019-02-06T04:41:32.110Z,80.14
2019-02-06T04:42:03.511Z,80.21
2019-02-06T04:42:34.728Z,80.65
2019-02-06T04:43:06.247Z,80.90
2019-02-06T04:43:37.428Z,80.87
2019-02-06T04:44:08.657Z,80.93
2019-02-06T04:44:39.985Z,80.81
2019-02-06T04:45:11.174Z,80.73
2019-02-06T04:45:42.453Z,80.60
2019-02-06T04:46:13.724Z,80.38
2019-02-06T04:46:44.928Z,80.31
2019-02-06T04:47:16.222Z,80.31
2019-02-06T04:47:47.715Z,80.38
2019-02-06T04:48:18.924Z,80.50
2019-02-06T04:48:50.122Z,80.79
2019-02-06T04:49:21.328Z,81.37
2019-02-06T04:49:52.541Z,81.79
2019-02-06T04:50:23.739Z,81.93
2019-02-06T04:50:55.006Z,82.11
2019-02-06T04:51:26.233Z,82.23
2019-02-06T04:51:57.425Z,82.42
2019-02-06T04:52:28.624Z,82.21
2019-02-06T04:52:59.853Z,81.55
2019-02-06T04:53:31.530Z,80.83
2019-02-06T04:54:02.922Z,80.92
2019-02-06T04:54:34.121Z,81.07
2019-02-06T04:55:05.346Z,81.00
2019-02-06T04:55:36.556Z,81.08
2019-02-06T04:56:07.790Z,81.05
2019-02-06T04:56:38.998Z,81.09
2019-02-06T04:57:10.215Z,80.50
2019-02-06T04:57:41.449Z,80.21
2019-02-06T04:58:12.675Z,79.89
2019-02-06T04:58:43.908Z,79.46
2019-02-06T04:59:15.497Z,79.12
2019-02-06T04:59:46.704Z,78.97
2019-02-06T05:00:17.910Z,78.33
2019-02-06T05:00:49.134Z,77.86
2019-02-06T05:01:20.395Z,77.43
2019-02-06T05:01:51.617Z,77.21
2019-02-06T05:02:22.811Z,77.14
2019-02-06T05:02:54.015Z,77.16
2019-02-06T05:03:25.779Z,77.06
2019-02-06T05:03:57.323Z,76.90
2019-02-06T05:04:28.579Z,76.97
2019-02-06T05:05:00.275Z,77.18
2019-02-06T05:05:31.459Z,77.28
2019-02-06T05:06:02.656Z,77.26
2019-02-06T05:06:33.865Z,77.19
2019-02-06T05:07:05.075Z,77.18
2019-02-06T05:07:36.295Z,77.08
2019-02-06T05:08:07.586Z,77.07
2019-02-06T05:08:38.806Z,77.05
2019-02-06T05:09:10.038Z,77.05
2019-02-06T05:09:41.394Z,77.60
2019-02-06T05:10:12.608Z,77.82
2019-02-06T05:10:43.852Z,77.62
2019-02-06T05:11:15.070Z,77.56
2019-02-06T05:11:46.351Z,77.52
2019-02-06T05:12:17.572Z,77.53
2019-02-06T05:12:48.783Z,77.43
2019-02-06T05:13:20.047Z,77.41
2019-02-06T05:13:51.286Z,77.52
2019-02-06T05:14:22.505Z,77.66
2019-02-06T05:14:53.719Z,77.92
2019-02-06T05:15:25.113Z,77.81
2019-02-06T05:15:56.327Z,77.64
2019-02-06T05:16:27.538Z,77.60
2019-02-06T05:16:58.805Z,77.60
2019-02-06T05:17:30.385Z,77.61
2019-02-06T05:18:01.595Z,77.69
2019-02-06T05:18:32.792Z,77.71
2019-02-06T05:19:04.010Z,77.72
2019-02-06T05:19:35.228Z,77.67
2019-02-06T05:20:06.455Z,77.82
2019-02-06T05:20:37.678Z,77.97
2019-02-06T05:21:10.122Z,78.00
2019-02-06T05:21:41.306Z,78.02
2019-02-06T05:22:12.537Z,78.08
2019-02-06T05:22:43.786Z,78.09
2019-02-06T05:23:15.010Z,78.23
2019-02-06T05:23:46.237Z,78.27
2019-02-06T05:24:17.448Z,78.43
2019-02-06T05:24:48.654Z,78.51
2019-02-06T05:25:19.873Z,78.58
2019-02-06T05:25:51.195Z,78.58
2019-02-06T05:26:22.413Z,78.56
2019-02-06T05:26:54.004Z,78.61
2019-02-06T05:27:25.258Z,78.71
2019-02-06T05:27:56.467Z,78.80
2019-02-06T05:28:27.692Z,78.93
2019-02-06T05:28:58.961Z,78.94
2019-02-06T05:29:30.179Z,78.98
2019-02-06T05:30:01.392Z,79.15
2019-02-06T05:30:32.647Z,79.24
2019-02-06T05:31:03.854Z,79.43
2019-02-06T05:31:35.358Z,79.41
2019-02-06T05:32:06.564Z,79.44
2019-02-06T05:32:42.791Z,79.54
2019-02-06T05:33:10.704Z,79.68
2019-02-06T05:33:41.989Z,80.03
2019-02-06T05:34:13.198Z,80.18
2019-02-06T05:34:44.415Z,80.20
2019-02-06T05:35:15.680Z,81.39
2019-02-06T05:35:46.895Z,80.87
2019-02-06T05:36:18.127Z,80.36
2019-02-06T05:36:50.990Z,79.99
2019-02-06T05:37:31.663Z,79.74
2019-02-06T05:37:55.720Z,79.67
2019-02-06T05:38:27.410Z,79.62
2019-02-06T05:38:58.612Z,79.54
2019-02-06T05:39:29.829Z,79.46
2019-02-06T05:40:01.031Z,79.42
2019-02-06T05:40:32.288Z,79.39
2019-02-06T05:41:03.515Z,79.43
2019-02-06T05:41:34.750Z,79.43
2019-02-06T05:42:05.956Z,79.42
2019-02-06T05:42:37.167Z,79.45
2019-02-06T05:43:08.648Z,79.39
2019-02-06T05:43:39.867Z,79.36
2019-02-06T05:44:11.080Z,79.36
2019-02-06T05:44:42.299Z,79.81
2019-02-06T05:45:13.509Z,79.62
2019-02-06T05:45:44.773Z,79.59
2019-02-06T05:46:15.986Z,79.85
2019-02-06T05:46:47.192Z,79.82
2019-02-06T05:47:18.418Z,79.71
2019-02-06T05:47:49.620Z,79.55
2019-02-06T05:48:20.823Z,79.76
2019-02-06T05:48:52.527Z,79.54
2019-02-06T05:49:23.749Z,79.71
2019-02-06T05:49:55.027Z,79.56
2019-02-06T05:50:26.221Z,79.31
2019-02-06T05:50:57.428Z,78.93
2019-02-06T05:51:28.637Z,78.72
2019-02-06T05:51:59.910Z,78.72
2019-02-06T05:52:31.106Z,78.76
2019-02-06T05:53:02.357Z,78.73
2019-02-06T05:53:33.579Z,78.64
2019-02-06T05:54:04.792Z,78.62
2019-02-06T05:54:36.388Z,78.52
2019-02-06T05:55:07.622Z,78.47
2019-02-06T05:55:38.811Z,78.63
2019-02-06T05:56:10.027Z,78.77
2019-02-06T05:56:41.249Z,78.92
2019-02-06T05:57:12.497Z,79.07
2019-02-06T05:57:43.810Z,79.16
2019-02-06T05:58:15.061Z,79.18
2019-02-06T05:58:46.267Z,79.24
2019-02-06T05:59:17.651Z,79.36
2019-02-06T05:59:48.878Z,79.41
2019-02-06T06:00:20.161Z,79.37
2019-02-06T06:00:51.415Z,79.35
2019-02-06T06:01:22.630Z,79.35
2019-02-06T06:01:53.857Z,79.34
2019-02-06T06:02:25.064Z,79.25
2019-02-06T06:02:56.284Z,79.56
2019-02-06T06:03:27.491Z,79.93
2019-02-06T06:03:58.707Z,79.66
2019-02-06T06:04:29.905Z,79.47
2019-02-06T06:05:01.392Z,79.28
2019-02-06T06:05:32.647Z,79.32
2019-02-06T06:06:03.863Z,79.64
2019-02-06T06:06:35.077Z,79.31
2019-02-06T06:07:06.288Z,79.05
2019-02-06T06:07:45.253Z,78.97
2019-02-06T06:08:10.523Z,78.77
2019-02-06T06:08:41.736Z,78.70
2019-02-06T06:09:12.961Z,78.63
2019-02-06T06:09:44.159Z,78.64
2019-02-06T06:10:15.385Z,78.82
2019-02-06T06:10:47.151Z,78.84
2019-02-06T06:11:18.343Z,78.66
2019-02-06T06:11:49.635Z,78.57
2019-02-06T06:12:20.853Z,78.58
2019-02-06T06:12:52.074Z,78.48
2019-02-06T06:13:23.322Z,78.40
2019-02-06T06:13:54.572Z,78.36
2019-02-06T06:14:25.832Z,78.30
2019-02-06T06:14:57.060Z,78.35
2019-02-06T06:15:28.612Z,79.16
2019-02-06T06:15:59.827Z,78.47
2019-02-06T06:16:31.135Z,78.07
2019-02-06T06:17:02.329Z,78.04
2019-02-06T06:17:33.581Z,78.14
2019-02-06T06:18:04.806Z,78.24
2019-02-06T06:18:36.066Z,78.33
2019-02-06T06:19:07.303Z,78.54
2019-02-06T06:19:38.513Z,78.51
2019-02-06T06:20:09.725Z,78.44
2019-02-06T06:20:40.979Z,78.63
2019-02-06T06:21:12.646Z,78.80
2019-02-06T06:21:43.870Z,78.65
2019-02-06T06:22:15.136Z,78.54
2019-02-06T06:22:46.325Z,78.55
2019-02-06T06:23:17.529Z,79.46
2019-02-06T06:23:48.732Z,79.74
2019-02-06T06:24:19.977Z,79.31
2019-02-06T06:24:51.214Z,79.17
2019-02-06T06:25:22.409Z,79.11
2019-02-06T06:25:53.665Z,79.35
2019-02-06T06:26:24.867Z,78.77
2019-02-06T06:26:56.247Z,78.57
2019-02-06T06:27:27.458Z,78.48
2019-02-06T06:27:58.692Z,78.50
2019-02-06T06:28:29.891Z,78.42
2019-02-06T06:29:01.100Z,79.30
2019-02-06T06:29:32.303Z,79.02
2019-02-06T06:30:03.518Z,78.52
2019-02-06T06:30:34.729Z,78.11
2019-02-06T06:31:06.001Z,77.86
2019-02-06T06:31:37.576Z,77.56
2019-02-06T06:32:08.823Z,77.42
2019-02-06T06:32:40.071Z,77.32
2019-02-06T06:33:12.250Z,77.21
2019-02-06T06:33:43.466Z,77.30
2019-02-06T06:34:14.678Z,77.37
2019-02-06T06:34:46.003Z,77.22
2019-02-06T06:35:17.220Z,77.01
2019-02-06T06:35:48.476Z,77.02
2019-02-06T06:36:19.672Z,77.09
2019-02-06T06:36:50.942Z,77.21
2019-02-06T06:37:22.344Z,77.21
2019-02-06T06:38:01.930Z,77.23
2019-02-06T06:38:26.485Z,77.31
2019-02-06T06:38:57.743Z,77.38
2019-02-06T06:39:28.975Z,77.66
2019-02-06T06:40:00.252Z,77.82
2019-02-06T06:40:31.447Z,77.85
2019-02-06T06:41:02.644Z,77.82
2019-02-06T06:41:33.857Z,77.71
2019-02-06T06:42:05.105Z,77.52
2019-02-06T06:42:36.314Z,77.51
2019-02-06T06:43:07.712Z,77.63